sensor_id;sensor_type;location;lat;lon;timestamp;pressure;altitude;pressure_sealevel;temperature;humidity
78383;BME280;67668;52.294;4.692;2023-11-21T00:02:24;101157.97;;;10.01;91.07
78383;BME280;67668;52.294;4.692;2023-11-21T00:04:50;101165.91;;;10.01;91.14
78383;BME280;67668;52.294;4.692;2023-11-21T00:07:15;101165.19;;;9.99;91.16
78383;BME280;67668;52.294;4.692;2023-11-21T00:09:41;101160.84;;;9.98;91.49
78383;BME280;67668;52.294;4.692;2023-11-21T00:12:07;101167.84;;;9.99;91.30
78383;BME280;67668;52.294;4.692;2023-11-21T00:14:38;101179.38;;;9.98;91.43
78383;BME280;67668;52.294;4.692;2023-11-21T00:17:04;101168.94;;;9.96;91.69
78383;BME280;67668;52.294;4.692;2023-11-21T00:19:30;101174.22;;;9.96;91.84
78383;BME280;67668;52.294;4.692;2023-11-21T00:21:55;101182.00;;;9.98;91.84
78383;BME280;67668;52.294;4.692;2023-11-21T00:24:23;101182.00;;;9.98;91.67
78383;BME280;67668;52.294;4.692;2023-11-21T00:26:50;101178.56;;;9.97;91.75
78383;BME280;67668;52.294;4.692;2023-11-21T00:29:15;101180.34;;;9.97;91.82
78383;BME280;67668;52.294;4.692;2023-11-21T00:31:43;101182.84;;;9.98;91.46
78383;BME280;67668;52.294;4.692;2023-11-21T00:34:08;101180.22;;;9.98;91.70
78383;BME280;67668;52.294;4.692;2023-11-21T00:36:33;101184.66;;;9.98;92.08
78383;BME280;67668;52.294;4.692;2023-11-21T00:38:59;101190.78;;;9.98;91.83
78383;BME280;67668;52.294;4.692;2023-11-21T00:41:25;101189.94;;;9.98;92.15
78383;BME280;67668;52.294;4.692;2023-11-21T00:43:53;101183.84;;;9.97;92.23
78383;BME280;67668;52.294;4.692;2023-11-21T00:46:18;101191.78;;;9.97;92.21
78383;BME280;67668;52.294;4.692;2023-11-21T00:48:43;101178.56;;;9.97;92.13
78383;BME280;67668;52.294;4.692;2023-11-21T00:51:08;101182.84;;;9.98;92.26
78383;BME280;67668;52.294;4.692;2023-11-21T00:53:34;101183.84;;;9.97;92.27
78383;BME280;67668;52.294;4.692;2023-11-21T00:55:59;101188.16;;;9.98;92.33
78383;BME280;67668;52.294;4.692;2023-11-21T00:58:25;101188.28;;;9.97;92.19
78383;BME280;67668;52.294;4.692;2023-11-21T01:00:50;101193.56;;;9.97;92.48
78383;BME280;67668;52.294;4.692;2023-11-21T01:03:15;101192.75;;;9.96;92.45
78383;BME280;67668;52.294;4.692;2023-11-21T01:05:40;101191.88;;;9.96;92.52
78383;BME280;67668;52.294;4.692;2023-11-21T01:08:06;101191.03;;;9.95;92.64
78383;BME280;67668;52.294;4.692;2023-11-21T01:10:31;101202.47;;;9.96;92.55
78383;BME280;67668;52.294;4.692;2023-11-21T01:12:56;101201.63;;;9.95;92.86
78383;BME280;67668;52.294;4.692;2023-11-21T01:15:23;101211.34;;;9.95;92.55
78383;BME280;67668;52.294;4.692;2023-11-21T01:17:48;101215.69;;;9.96;92.61
78383;BME280;67668;52.294;4.692;2023-11-21T01:20:13;101220.13;;;9.95;92.67
78383;BME280;67668;52.294;4.692;2023-11-21T01:22:39;101226.25;;;9.96;92.71
78383;BME280;67668;52.294;4.692;2023-11-21T01:25:04;101230.72;;;9.95;92.83
78383;BME280;67668;52.294;4.692;2023-11-21T01:27:33;101227.22;;;9.95;92.70
78383;BME280;67668;52.294;4.692;2023-11-21T01:29:59;101228.06;;;9.95;92.94
78383;BME280;67668;52.294;4.692;2023-11-21T01:32:24;101241.28;;;9.95;93.05
78383;BME280;67668;52.294;4.692;2023-11-21T01:34:50;101234.19;;;9.96;92.92
78383;BME280;67668;52.294;4.692;2023-11-21T01:37:15;101243.94;;;9.95;92.85
78383;BME280;67668;52.294;4.692;2023-11-21T01:39:45;101245.63;;;9.96;92.85
78383;BME280;67668;52.294;4.692;2023-11-21T01:42:12;101246.47;;;9.97;92.97
78383;BME280;67668;52.294;4.692;2023-11-21T01:44:38;101251.75;;;9.97;93.06
78383;BME280;67668;52.294;4.692;2023-11-21T01:47:04;101249.94;;;9.97;93.14
78383;BME280;67668;52.294;4.692;2023-11-21T01:49:34;101252.59;;;9.97;93.10
78383;BME280;67668;52.294;4.692;2023-11-21T01:52:02;101254.25;;;9.98;93.08
78383;BME280;67668;52.294;4.692;2023-11-21T01:54:29;101256.03;;;9.98;93.13
78383;BME280;67668;52.294;4.692;2023-11-21T01:57:01;101261.34;;;9.98;92.90
78383;BME280;67668;52.294;4.692;2023-11-21T01:59:32;101267.34;;;10.00;92.95
78383;BME280;67668;52.294;4.692;2023-11-21T02:01:59;101263.88;;;9.99;93.22
78383;BME280;67668;52.294;4.692;2023-11-21T02:04:24;101260.25;;;10.00;93.21
78383;BME280;67668;52.294;4.692;2023-11-21T02:06:50;101269.03;;;10.01;93.10
78383;BME280;67668;52.294;4.692;2023-11-21T02:09:15;101269.03;;;10.01;92.97
78383;BME280;67668;52.294;4.692;2023-11-21T02:11:41;101271.69;;;10.01;93.01
78383;BME280;67668;52.294;4.692;2023-11-21T02:14:06;101281.28;;;10.02;92.88
78383;BME280;67668;52.294;4.692;2023-11-21T02:16:34;101273.34;;;10.02;93.15
78383;BME280;67668;52.294;4.692;2023-11-21T02:18:59;101269.84;;;10.01;93.25
78383;BME280;67668;52.294;4.692;2023-11-21T02:21:25;101265.41;;;10.02;93.19
78383;BME280;67668;52.294;4.692;2023-11-21T02:23:50;101276.00;;;10.02;93.29
78383;BME280;67668;52.294;4.692;2023-11-21T02:26:16;101278.63;;;10.02;92.94
78383;BME280;67668;52.294;4.692;2023-11-21T02:28:41;101279.47;;;10.02;93.17
78383;BME280;67668;52.294;4.692;2023-11-21T02:31:07;101281.28;;;10.02;92.88
78383;BME280;67668;52.294;4.692;2023-11-21T02:33:33;101277.69;;;10.03;93.00
78383;BME280;67668;52.294;4.692;2023-11-21T02:36:02;101283.91;;;10.02;92.81
78383;BME280;67668;52.294;4.692;2023-11-21T02:38:28;101285.59;;;10.03;92.68
78383;BME280;67668;52.294;4.692;2023-11-21T02:40:53;101283.91;;;10.02;92.73
78383;BME280;67668;52.294;4.692;2023-11-21T02:43:19;101281.28;;;10.02;92.58
78383;BME280;67668;52.294;4.692;2023-11-21T02:45:44;101282.13;;;10.02;92.65
78383;BME280;67668;52.294;4.692;2023-11-21T02:48:09;101286.44;;;10.03;92.53
78383;BME280;67668;52.294;4.692;2023-11-21T02:50:34;101276.00;;;10.02;92.79
78383;BME280;67668;52.294;4.692;2023-11-21T02:53:00;101278.53;;;10.03;92.65
78383;BME280;67668;52.294;4.692;2023-11-21T02:55:27;101280.31;;;10.03;92.38
78383;BME280;67668;52.294;4.692;2023-11-21T02:57:52;101269.75;;;10.03;92.85
78383;BME280;67668;52.294;4.692;2023-11-21T03:00:18;101277.69;;;10.03;92.67
78383;BME280;67668;52.294;4.692;2023-11-21T03:02:43;101280.44;;;10.01;92.69
78383;BME280;67668;52.294;4.692;2023-11-21T03:05:09;101289.22;;;10.02;93.00
78383;BME280;67668;52.294;4.692;2023-11-21T03:07:36;101297.13;;;10.02;92.79
78383;BME280;67668;52.294;4.692;2023-11-21T03:10:02;101292.69;;;10.02;92.95
78383;BME280;67668;52.294;4.692;2023-11-21T03:12:29;101300.63;;;10.02;92.93
78383;BME280;67668;52.294;4.692;2023-11-21T03:14:55;101294.50;;;10.02;92.94
78383;BME280;67668;52.294;4.692;2023-11-21T03:17:20;101291.00;;;10.01;92.98
78383;BME280;67668;52.294;4.692;2023-11-21T03:19:46;101296.28;;;10.01;92.93
78383;BME280;67668;52.294;4.692;2023-11-21T03:22:11;101302.44;;;10.02;93.21
78383;BME280;67668;52.294;4.692;2023-11-21T03:24:36;101306.06;;;10.01;93.00
78383;BME280;67668;52.294;4.692;2023-11-21T03:27:03;101304.13;;;10.03;93.16
78383;BME280;67668;52.294;4.692;2023-11-21T03:29:29;101307.72;;;10.02;93.18
78383;BME280;67668;52.294;4.692;2023-11-21T03:31:54;101317.34;;;10.03;93.34
78383;BME280;67668;52.294;4.692;2023-11-21T03:34:24;101319.13;;;10.02;93.32
78383;BME280;67668;52.294;4.692;2023-11-21T03:36:49;101329.59;;;10.04;93.32
78383;BME280;67668;52.294;4.692;2023-11-21T03:39:15;101326.13;;;10.03;93.29
78383;BME280;67668;52.294;4.692;2023-11-21T03:41:40;101333.06;;;10.04;93.39
78383;BME280;67668;52.294;4.692;2023-11-21T03:44:05;101330.56;;;10.03;93.51
78383;BME280;67668;52.294;4.692;2023-11-21T03:46:30;101333.91;;;10.05;93.64
78383;BME280;67668;52.294;4.692;2023-11-21T03:48:56;101332.25;;;10.04;93.59
78383;BME280;67668;52.294;4.692;2023-11-21T03:51:21;101333.06;;;10.04;93.44
78383;BME280;67668;52.294;4.692;2023-11-21T03:53:46;101337.53;;;10.04;93.64
78383;BME280;67668;52.294;4.692;2023-11-21T03:56:13;101340.03;;;10.05;93.56
78383;BME280;67668;52.294;4.692;2023-11-21T03:58:39;101344.50;;;10.05;93.62
78383;BME280;67668;52.294;4.692;2023-11-21T04:01:04;101347.13;;;10.05;93.62
78383;BME280;67668;52.294;4.692;2023-11-21T04:03:29;101351.47;;;10.06;93.76
78383;BME280;67668;52.294;4.692;2023-11-21T04:05:55;101354.22;;;10.04;94.13
78383;BME280;67668;52.294;4.692;2023-11-21T04:08:20;101369.03;;;10.07;93.78
78383;BME280;67668;52.294;4.692;2023-11-21T04:10:45;101361.09;;;10.07;93.82
78383;BME280;67668;52.294;4.692;2023-11-21T04:13:11;101369.97;;;10.06;93.82
78383;BME280;67668;52.294;4.692;2023-11-21T04:15:36;101371.53;;;10.08;94.38
78383;BME280;67668;52.294;4.692;2023-11-21T04:18:01;101375.75;;;10.11;94.10
78383;BME280;67668;52.294;4.692;2023-11-21T04:20:27;101371.53;;;10.08;93.91
78383;BME280;67668;52.294;4.692;2023-11-21T04:22:52;101372.38;;;10.09;94.09
78383;BME280;67668;52.294;4.692;2023-11-21T04:25:17;101378.50;;;10.09;93.74
78383;BME280;67668;52.294;4.692;2023-11-21T04:27:44;101382.69;;;10.12;93.56
78383;BME280;67668;52.294;4.692;2023-11-21T04:30:11;101379.34;;;10.10;93.79
78383;BME280;67668;52.294;4.692;2023-11-21T04:32:36;101389.94;;;10.10;93.66
78383;BME280;67668;52.294;4.692;2023-11-21T04:35:02;101385.47;;;10.10;93.63
78383;BME280;67668;52.294;4.692;2023-11-21T04:37:29;101395.31;;;10.08;93.72
78383;BME280;67668;52.294;4.692;2023-11-21T04:39:54;101400.50;;;10.10;93.67
78383;BME280;67668;52.294;4.692;2023-11-21T04:42:19;101399.66;;;10.09;93.65
78383;BME280;67668;52.294;4.692;2023-11-21T04:44:44;101402.41;;;10.08;93.44
78383;BME280;67668;52.294;4.692;2023-11-21T04:47:10;101402.41;;;10.08;93.63
78383;BME280;67668;52.294;4.692;2023-11-21T04:49:35;101407.84;;;10.06;93.53
78383;BME280;67668;52.294;4.692;2023-11-21T04:52:01;101404.34;;;10.06;93.65
78383;BME280;67668;52.294;4.692;2023-11-21T04:54:27;101423.72;;;10.06;93.45
78383;BME280;67668;52.294;4.692;2023-11-21T04:56:52;101414.94;;;10.06;93.50
78383;BME280;67668;52.294;4.692;2023-11-21T04:59:17;101416.03;;;10.03;93.54
78383;BME280;67668;52.294;4.692;2023-11-21T05:01:43;101415.19;;;10.03;93.61
78383;BME280;67668;52.294;4.692;2023-11-21T05:04:08;101425.75;;;10.03;93.59
78383;BME280;67668;52.294;4.692;2023-11-21T05:06:33;101421.44;;;10.02;93.83
78383;BME280;67668;52.294;4.692;2023-11-21T05:08:59;101423.22;;;10.01;93.73
78383;BME280;67668;52.294;4.692;2023-11-21T05:11:25;101437.28;;;10.02;93.73
78383;BME280;67668;52.294;4.692;2023-11-21T05:13:50;101440.94;;;10.01;93.96
78383;BME280;67668;52.294;4.692;2023-11-21T05:16:15;101442.59;;;10.02;93.80
78383;BME280;67668;52.294;4.692;2023-11-21T05:18:41;101443.56;;;10.01;93.77
78383;BME280;67668;52.294;4.692;2023-11-21T05:21:06;101455.81;;;10.02;94.12
78383;BME280;67668;52.294;4.692;2023-11-21T05:23:32;101457.75;;;10.00;94.39
78383;BME280;67668;52.294;4.692;2023-11-21T05:25:57;101456.78;;;10.01;94.09
78383;BME280;67668;52.294;4.692;2023-11-21T05:28:22;101462.88;;;10.01;94.09
78383;BME280;67668;52.294;4.692;2023-11-21T05:30:48;101460.25;;;10.01;94.29
78383;BME280;67668;52.294;4.692;2023-11-21T05:33:15;101462.88;;;10.01;94.15
78383;BME280;67668;52.294;4.692;2023-11-21T05:35:43;101465.53;;;10.01;94.23
78383;BME280;67668;52.294;4.692;2023-11-21T05:38:09;101474.31;;;10.02;94.36
78383;BME280;67668;52.294;4.692;2023-11-21T05:40:34;101472.50;;;10.02;94.19
78383;BME280;67668;52.294;4.692;2023-11-21T05:43:00;101473.38;;;10.03;94.25
78383;BME280;67668;52.294;4.692;2023-11-21T05:45:25;101472.41;;;10.04;94.17
78383;BME280;67668;52.294;4.692;2023-11-21T05:47:50;101476.00;;;10.03;94.14
78383;BME280;67668;52.294;4.692;2023-11-21T05:50:16;101481.16;;;10.04;94.42
78383;BME280;67668;52.294;4.692;2023-11-21T05:52:43;101490.78;;;10.05;94.39
78383;BME280;67668;52.294;4.692;2023-11-21T05:55:09;101489.22;;;10.03;94.34
78383;BME280;67668;52.294;4.692;2023-11-21T05:57:37;101489.22;;;10.03;94.58
78383;BME280;67668;52.294;4.692;2023-11-21T06:00:14;101500.66;;;10.03;94.53
78383;BME280;67668;52.294;4.692;2023-11-21T06:02:47;101501.59;;;10.02;94.71
78383;BME280;67668;52.294;4.692;2023-11-21T06:05:15;101505.19;;;10.01;94.51
78383;BME280;67668;52.294;4.692;2023-11-21T06:07:40;101504.38;;;10.01;95.13
78383;BME280;67668;52.294;4.692;2023-11-21T06:10:07;101510.63;;;10.00;94.93
78383;BME280;67668;52.294;4.692;2023-11-21T06:12:37;101510.63;;;10.00;94.99
78383;BME280;67668;52.294;4.692;2023-11-21T06:15:03;101506.44;;;9.97;95.18
78383;BME280;67668;52.294;4.692;2023-11-21T06:17:30;101513.53;;;9.97;95.03
78383;BME280;67668;52.294;4.692;2023-11-21T06:19:56;101521.44;;;9.97;95.34
78383;BME280;67668;52.294;4.692;2023-11-21T06:22:21;101528.41;;;9.98;95.50
78383;BME280;67668;52.294;4.692;2023-11-21T06:24:46;101537.19;;;9.98;95.38
78383;BME280;67668;52.294;4.692;2023-11-21T06:27:12;101534.53;;;9.98;95.37
78383;BME280;67668;52.294;4.692;2023-11-21T06:29:37;101542.47;;;9.98;95.38
78383;BME280;67668;52.294;4.692;2023-11-21T06:32:03;101544.28;;;9.98;95.42
78383;BME280;67668;52.294;4.692;2023-11-21T06:34:30;101545.00;;;10.00;95.65
78383;BME280;67668;52.294;4.692;2023-11-21T06:36:55;101550.41;;;9.98;95.50
78383;BME280;67668;52.294;4.692;2023-11-21T06:39:21;101544.28;;;9.98;95.76
78383;BME280;67668;52.294;4.692;2023-11-21T06:41:51;101552.09;;;9.99;95.78
78383;BME280;67668;52.294;4.692;2023-11-21T06:44:16;101558.94;;;10.02;96.40
78383;BME280;67668;52.294;4.692;2023-11-21T06:46:41;101559.91;;;10.01;96.05
78383;BME280;67668;52.294;4.692;2023-11-21T06:49:08;101561.59;;;10.02;96.26
78383;BME280;67668;52.294;4.692;2023-11-21T06:51:33;101566.88;;;10.02;96.23
78383;BME280;67668;52.294;4.692;2023-11-21T06:53:58;101563.28;;;10.03;96.10
78383;BME280;67668;52.294;4.692;2023-11-21T06:56:23;101574.81;;;10.02;96.39
78383;BME280;67668;52.294;4.692;2023-11-21T06:58:49;101577.34;;;10.03;96.28
78383;BME280;67668;52.294;4.692;2023-11-21T07:01:14;101582.50;;;10.05;96.21
78383;BME280;67668;52.294;4.692;2023-11-21T07:03:40;101586.84;;;10.06;96.78
78383;BME280;67668;52.294;4.692;2023-11-21T07:06:07;101579.75;;;10.06;96.71
78383;BME280;67668;52.294;4.692;2023-11-21T07:08:32;101581.31;;;10.09;96.62
78383;BME280;67668;52.294;4.692;2023-11-21T07:10:58;101596.94;;;10.12;96.57
78383;BME280;67668;52.294;4.692;2023-11-21T07:13:23;101600.41;;;10.12;96.46
78383;BME280;67668;52.294;4.692;2023-11-21T07:15:48;101604.00;;;10.11;96.32
78383;BME280;67668;52.294;4.692;2023-11-21T07:18:14;101603.19;;;10.11;96.31
78383;BME280;67668;52.294;4.692;2023-11-21T07:20:39;101615.44;;;10.12;96.57
78383;BME280;67668;52.294;4.692;2023-11-21T07:23:04;101621.59;;;10.12;96.36
78383;BME280;67668;52.294;4.692;2023-11-21T07:25:31;101622.44;;;10.13;96.29
78383;BME280;67668;52.294;4.692;2023-11-21T07:27:57;101629.44;;;10.14;96.51
78383;BME280;67668;52.294;4.692;2023-11-21T07:30:22;101624.88;;;10.16;96.67
78383;BME280;67668;52.294;4.692;2023-11-21T07:32:48;101633.66;;;10.16;96.52
78383;BME280;67668;52.294;4.692;2023-11-21T07:35:13;101639.78;;;10.17;96.67
78383;BME280;67668;52.294;4.692;2023-11-21T07:37:38;101643.38;;;10.16;96.28
78383;BME280;67668;52.294;4.692;2023-11-21T07:40:04;101637.97;;;10.17;96.49
78383;BME280;67668;52.294;4.692;2023-11-21T07:42:29;101653.72;;;10.19;96.42
78383;BME280;67668;52.294;4.692;2023-11-21T07:44:55;101650.13;;;10.20;96.56
78383;BME280;67668;52.294;4.692;2023-11-21T07:47:20;101648.44;;;10.19;96.57
78383;BME280;67668;52.294;4.692;2023-11-21T07:49:45;101655.41;;;10.20;96.68
78383;BME280;67668;52.294;4.692;2023-11-21T07:52:13;101658.06;;;10.20;96.81
78383;BME280;67668;52.294;4.692;2023-11-21T07:54:39;101652.63;;;10.21;96.78
78383;BME280;67668;52.294;4.692;2023-11-21T07:57:05;101672.94;;;10.21;96.89
78383;BME280;67668;52.294;4.692;2023-11-21T07:59:30;101669.34;;;10.22;97.04
78383;BME280;67668;52.294;4.692;2023-11-21T08:01:55;101674.53;;;10.23;96.75
78383;BME280;67668;52.294;4.692;2023-11-21T08:04:21;101678.03;;;10.24;96.89
78383;BME280;67668;52.294;4.692;2023-11-21T08:06:46;101685.97;;;10.24;96.78
78383;BME280;67668;52.294;4.692;2023-11-21T08:09:11;101695.47;;;10.26;97.13
78383;BME280;67668;52.294;4.692;2023-11-21T08:11:38;101697.03;;;10.29;97.02
78383;BME280;67668;52.294;4.692;2023-11-21T08:14:04;101702.31;;;10.29;97.27
78383;BME280;67668;52.294;4.692;2023-11-21T08:16:30;101710.25;;;10.29;97.27
78383;BME280;67668;52.294;4.692;2023-11-21T08:18:55;101713.59;;;10.31;97.28
78383;BME280;67668;52.294;4.692;2023-11-21T08:21:20;101712.66;;;10.32;97.38
78383;BME280;67668;52.294;4.692;2023-11-21T08:23:46;101712.41;;;10.35;97.52
78383;BME280;67668;52.294;4.692;2023-11-21T08:26:12;101714.09;;;10.36;97.68
78383;BME280;67668;52.294;4.692;2023-11-21T08:28:38;101715.06;;;10.35;97.59
78383;BME280;67668;52.294;4.692;2023-11-21T08:31:04;101722.88;;;10.36;97.46
78383;BME280;67668;52.294;4.692;2023-11-21T08:33:29;101720.97;;;10.38;97.32
78383;BME280;67668;52.294;4.692;2023-11-21T08:35:55;101720.00;;;10.40;97.58
78383;BME280;67668;52.294;4.692;2023-11-21T08:38:20;101724.22;;;10.42;97.33
78383;BME280;67668;52.294;4.692;2023-11-21T08:40:45;101716.28;;;10.42;97.53
78383;BME280;67668;52.294;4.692;2023-11-21T08:43:11;101724.91;;;10.44;97.51
78383;BME280;67668;52.294;4.692;2023-11-21T08:45:37;101727.56;;;10.44;97.23
78383;BME280;67668;52.294;4.692;2023-11-21T08:48:02;101734.56;;;10.45;97.41
78383;BME280;67668;52.294;4.692;2023-11-21T08:50:28;101737.09;;;10.47;97.36
78383;BME280;67668;52.294;4.692;2023-11-21T08:52:53;101752.13;;;10.46;97.35
78383;BME280;67668;52.294;4.692;2023-11-21T08:55:18;101749.47;;;10.46;97.50
78383;BME280;67668;52.294;4.692;2023-11-21T08:57:45;101748.53;;;10.47;97.36
78383;BME280;67668;52.294;4.692;2023-11-21T09:00:12;101757.19;;;10.49;97.41
78383;BME280;67668;52.294;4.692;2023-11-21T09:02:40;101764.28;;;10.49;97.51
78383;BME280;67668;52.294;4.692;2023-11-21T09:05:12;101763.31;;;10.50;97.54
78383;BME280;67668;52.294;4.692;2023-11-21T09:07:42;101770.28;;;10.51;97.33
78383;BME280;67668;52.294;4.692;2023-11-21T09:10:07;101772.81;;;10.52;97.01
78383;BME280;67668;52.294;4.692;2023-11-21T09:12:35;101770.88;;;10.54;97.18
78383;BME280;67668;52.294;4.692;2023-11-21T09:15:02;101784.13;;;10.54;97.14
78383;BME280;67668;52.294;4.692;2023-11-21T09:17:27;101788.59;;;10.54;97.38
78383;BME280;67668;52.294;4.692;2023-11-21T09:19:53;101802.41;;;10.57;97.10
78383;BME280;67668;52.294;4.692;2023-11-21T09:22:18;101806.75;;;10.58;97.02
78383;BME280;67668;52.294;4.692;2023-11-21T09:24:44;101807.50;;;10.60;96.94
78383;BME280;67668;52.294;4.692;2023-11-21T09:27:09;101818.91;;;10.61;96.93
78383;BME280;67668;52.294;4.692;2023-11-21T09:29:37;101817.00;;;10.63;97.04
78383;BME280;67668;52.294;4.692;2023-11-21T09:32:06;101827.59;;;10.63;96.70
78383;BME280;67668;52.294;4.692;2023-11-21T09:34:34;101830.25;;;10.63;96.48
78383;BME280;67668;52.294;4.692;2023-11-21T09:37:03;101835.41;;;10.64;96.80
78383;BME280;67668;52.294;4.692;2023-11-21T09:39:30;101846.84;;;10.65;96.73
78383;BME280;67668;52.294;4.692;2023-11-21T09:42:04;101853.81;;;10.66;96.44
78383;BME280;67668;52.294;4.692;2023-11-21T09:44:45;101855.53;;;10.67;96.49
78383;BME280;67668;52.294;4.692;2023-11-21T09:47:14;101865.25;;;10.66;96.56
78383;BME280;67668;52.294;4.692;2023-11-21T09:49:42;101865.97;;;10.68;96.41
78383;BME280;67668;52.294;4.692;2023-11-21T09:52:16;101868.63;;;10.68;96.30
78383;BME280;67668;52.294;4.692;2023-11-21T09:54:43;101883.66;;;10.68;96.12
78383;BME280;67668;52.294;4.692;2023-11-21T09:57:09;101891.59;;;10.68;96.16
78383;BME280;67668;52.294;4.692;2023-11-21T09:59:34;101894.16;;;10.69;96.22
78383;BME280;67668;52.294;4.692;2023-11-21T10:02:02;101895.84;;;10.70;95.70
78383;BME280;67668;52.294;4.692;2023-11-21T10:04:28;101899.53;;;10.68;96.09
78383;BME280;67668;52.294;4.692;2023-11-21T10:06:54;101906.53;;;10.69;95.76
78383;BME280;67668;52.294;4.692;2023-11-21T10:09:20;101910.03;;;10.69;95.89
78383;BME280;67668;52.294;4.692;2023-11-21T10:11:47;101917.03;;;10.70;95.86
78383;BME280;67668;52.294;4.692;2023-11-21T10:14:12;101912.56;;;10.71;95.83
78383;BME280;67668;52.294;4.692;2023-11-21T10:16:40;101926.63;;;10.71;95.65
78383;BME280;67668;52.294;4.692;2023-11-21T10:19:09;101925.78;;;10.71;95.51
78383;BME280;67668;52.294;4.692;2023-11-21T10:21:35;101927.50;;;10.72;95.15
78383;BME280;67668;52.294;4.692;2023-11-21T10:24:01;101926.53;;;10.73;95.41
78383;BME280;67668;52.294;4.692;2023-11-21T10:26:29;101932.69;;;10.73;95.30
78383;BME280;67668;52.294;4.692;2023-11-21T10:29:00;101939.53;;;10.76;95.06
78383;BME280;67668;52.294;4.692;2023-11-21T10:31:33;101932.44;;;10.76;95.28
78383;BME280;67668;52.294;4.692;2023-11-21T10:34:15;101938.69;;;10.75;94.88
78383;BME280;67668;52.294;4.692;2023-11-21T10:36:41;101942.06;;;10.77;94.70
78383;BME280;67668;52.294;4.692;2023-11-21T10:39:07;101945.69;;;10.76;94.58
78383;BME280;67668;52.294;4.692;2023-11-21T10:41:32;101950.00;;;10.77;94.96
78383;BME280;67668;52.294;4.692;2023-11-21T10:43:58;101948.19;;;10.78;94.93
78383;BME280;67668;52.294;4.692;2023-11-21T10:46:23;101945.56;;;10.78;94.91
78383;BME280;67668;52.294;4.692;2023-11-21T10:48:54;101949.91;;;10.79;94.64
78383;BME280;67668;52.294;4.692;2023-11-21T10:51:21;101960.50;;;10.79;94.51
78383;BME280;67668;52.294;4.692;2023-11-21T10:53:46;101956.88;;;10.80;95.00
78383;BME280;67668;52.294;4.692;2023-11-21T10:56:14;101962.19;;;10.80;94.46
78383;BME280;67668;52.294;4.692;2023-11-21T10:58:45;101949.91;;;10.79;94.79
78383;BME280;67668;52.294;4.692;2023-11-21T11:01:11;101956.03;;;10.79;94.66
78383;BME280;67668;52.294;4.692;2023-11-21T11:03:39;101964.84;;;10.80;94.25
78383;BME280;67668;52.294;4.692;2023-11-21T11:06:06;101971.94;;;10.79;94.24
78383;BME280;67668;52.294;4.692;2023-11-21T11:08:37;101972.88;;;10.78;94.48
78383;BME280;67668;52.294;4.692;2023-11-21T11:11:04;101967.59;;;10.78;94.17
78383;BME280;67668;52.294;4.692;2023-11-21T11:13:30;101968.44;;;10.79;94.05
78383;BME280;67668;52.294;4.692;2023-11-21T11:15:58;101978.91;;;10.80;93.91
78383;BME280;67668;52.294;4.692;2023-11-21T11:18:29;101977.94;;;10.81;94.27
78383;BME280;67668;52.294;4.692;2023-11-21T11:21:04;101978.78;;;10.82;94.06
78383;BME280;67668;52.294;4.692;2023-11-21T11:26:44;101974.22;;;10.84;93.74
78383;BME280;67668;52.294;4.692;2023-11-21T11:29:20;101972.56;;;10.83;93.90
78383;BME280;67668;52.294;4.692;2023-11-21T11:34:55;101980.25;;;10.86;94.24
78383;BME280;67668;52.294;4.692;2023-11-21T11:37:24;101987.13;;;10.88;94.04
78383;BME280;67668;52.294;4.692;2023-11-21T11:39:50;101980.03;;;10.89;93.97
78383;BME280;67668;52.294;4.692;2023-11-21T11:42:21;101977.13;;;10.92;94.38
78383;BME280;67668;52.294;4.692;2023-11-21T11:44:48;101981.50;;;10.93;93.99
78383;BME280;67668;52.294;4.692;2023-11-21T11:47:17;101983.91;;;10.96;93.63
78383;BME280;67668;52.294;4.692;2023-11-21T11:50:05;101983.06;;;10.96;93.40
78383;BME280;67668;52.294;4.692;2023-11-21T11:52:49;102000.66;;;10.97;93.21
78383;BME280;67668;52.294;4.692;2023-11-21T11:55:18;101997.00;;;10.98;93.17
78383;BME280;67668;52.294;4.692;2023-11-21T11:57:54;102003.16;;;10.98;93.06
78383;BME280;67668;52.294;4.692;2023-11-21T12:02:56;102006.41;;;11.02;93.63
78383;BME280;67668;52.294;4.692;2023-11-21T12:05:26;102008.00;;;11.04;92.80
78383;BME280;67668;52.294;4.692;2023-11-21T12:07:59;102009.59;;;11.07;92.86
78383;BME280;67668;52.294;4.692;2023-11-21T12:10:30;102010.31;;;11.09;92.56
78383;BME280;67668;52.294;4.692;2023-11-21T12:13:01;102017.31;;;11.10;92.93
78383;BME280;67668;52.294;4.692;2023-11-21T12:15:27;102024.25;;;11.11;93.02
78383;BME280;67668;52.294;4.692;2023-11-21T12:17:55;102025.00;;;11.13;92.33
78383;BME280;67668;52.294;4.692;2023-11-21T12:20:22;102021.28;;;11.15;91.92
78383;BME280;67668;52.294;4.692;2023-11-21T12:22:53;102022.97;;;11.16;92.62
78383;BME280;67668;52.294;4.692;2023-11-21T12:25:23;102020.19;;;11.18;92.65
78383;BME280;67668;52.294;4.692;2023-11-21T12:27:50;102027.19;;;11.19;92.27
78383;BME280;67668;52.294;4.692;2023-11-21T12:30:23;102031.41;;;11.21;91.93
78383;BME280;67668;52.294;4.692;2023-11-21T12:32:53;102040.09;;;11.23;92.34
78383;BME280;67668;52.294;4.692;2023-11-21T12:35:23;102041.78;;;11.24;91.78
78383;BME280;67668;52.294;4.692;2023-11-21T12:37:49;102047.91;;;11.25;91.96
78383;BME280;67668;52.294;4.692;2023-11-21T12:40:17;102045.16;;;11.26;91.88
78383;BME280;67668;52.294;4.692;2023-11-21T12:42:45;102049.38;;;11.29;92.12
78383;BME280;67668;52.294;4.692;2023-11-21T12:47:41;102063.25;;;11.32;91.76
78383;BME280;67668;52.294;4.692;2023-11-21T12:50:07;102062.25;;;11.33;90.91
78383;BME280;67668;52.294;4.692;2023-11-21T12:52:40;102069.50;;;11.31;91.03
78383;BME280;67668;52.294;4.692;2023-11-21T12:55:06;102073.84;;;11.32;91.14
78383;BME280;67668;52.294;4.692;2023-11-21T12:57:33;102072.06;;;11.33;90.99
78383;BME280;67668;52.294;4.692;2023-11-21T12:59:58;102075.66;;;11.32;91.50
78383;BME280;67668;52.294;4.692;2023-11-21T13:02:30;102080.81;;;11.33;90.48